createdAt,value
2018-05-26T00:01:47.407Z,19.70
2018-05-26T00:04:15.116Z,19.70
2018-05-26T00:06:42.784Z,19.70
2018-05-26T00:09:10.368Z,19.70
2018-05-26T00:11:38.109Z,19.70
2018-05-26T00:14:06.157Z,19.70
2018-05-26T00:16:33.772Z,19.70
2018-05-26T00:19:01.428Z,19.70
2018-05-26T00:21:29.095Z,19.70
2018-05-26T00:23:56.811Z,19.70
2018-05-26T00:26:24.664Z,19.70
2018-05-26T00:28:52.280Z,19.70
2018-05-26T00:31:19.999Z,19.70
2018-05-26T00:33:47.519Z,19.70
2018-05-26T00:36:15.460Z,19.70
2018-05-26T00:38:43.173Z,19.70
2018-05-26T00:41:10.682Z,19.70
2018-05-26T00:43:38.376Z,19.70
2018-05-26T00:46:05.916Z,19.70
2018-05-26T00:48:33.566Z,19.70
2018-05-26T00:51:01.292Z,19.70
2018-05-26T00:53:28.922Z,19.70
2018-05-26T00:55:56.620Z,19.70
2018-05-26T00:58:24.465Z,19.70
2018-05-26T01:00:52.335Z,19.70
2018-05-26T01:03:19.949Z,19.70
2018-05-26T01:05:47.869Z,19.70
2018-05-26T01:08:15.541Z,19.70
2018-05-26T01:10:43.205Z,19.70
2018-05-26T01:13:11.080Z,19.70
2018-05-26T01:15:38.916Z,19.70
2018-05-26T01:18:06.420Z,19.70
2018-05-26T01:20:34.021Z,19.70
2018-05-26T01:23:01.524Z,19.70
2018-05-26T01:25:29.345Z,19.70
2018-05-26T01:27:57.008Z,19.70
2018-05-26T01:30:24.716Z,19.70
2018-05-26T01:32:52.216Z,19.70
2018-05-26T01:35:20.205Z,19.60
2018-05-26T01:37:47.943Z,19.60
2018-05-26T01:40:16.261Z,19.60
2018-05-26T01:42:43.774Z,19.60
2018-05-26T01:45:11.852Z,19.60
2018-05-26T01:47:44.853Z,19.60
2018-05-26T01:50:12.465Z,19.60
2018-05-26T01:52:40.172Z,19.60
2018-05-26T01:55:07.788Z,19.60
2018-05-26T01:57:35.489Z,19.60
2018-05-26T02:00:03.176Z,19.60
2018-05-26T02:02:30.777Z,19.60
2018-05-26T02:04:58.437Z,19.60
2018-05-26T02:07:26.101Z,19.60
2018-05-26T02:09:53.748Z,19.60
2018-05-26T02:12:21.279Z,19.60
2018-05-26T02:14:48.925Z,19.60
2018-05-26T02:17:16.789Z,19.60
2018-05-26T02:19:44.648Z,19.60
2018-05-26T02:22:12.207Z,19.60
2018-05-26T02:24:39.775Z,19.60
2018-05-26T02:27:07.417Z,19.60
2018-05-26T02:29:35.094Z,19.60
2018-05-26T02:32:02.966Z,19.60
2018-05-26T02:34:30.780Z,19.60
2018-05-26T02:36:58.386Z,19.60
2018-05-26T02:39:26.146Z,19.60
2018-05-26T02:41:54.089Z,19.60
2018-05-26T02:44:22.099Z,19.60
2018-05-26T02:46:49.774Z,19.60
2018-05-26T02:49:17.622Z,19.60
2018-05-26T02:51:45.271Z,19.60
2018-05-26T02:54:12.920Z,19.60
2018-05-26T02:56:40.548Z,19.60
2018-05-26T02:59:08.192Z,19.60
2018-05-26T03:01:35.854Z,19.60
2018-05-26T03:04:03.029Z,19.60
2018-05-26T03:06:36.756Z,19.60
2018-05-26T03:09:10.221Z,19.60
2018-05-26T03:11:43.424Z,19.60
2018-05-26T03:14:17.339Z,19.60
2018-05-26T03:16:47.461Z,19.60
2018-05-26T03:19:15.076Z,19.60
2018-05-26T03:21:42.800Z,19.50
2018-05-26T03:24:10.402Z,19.60
2018-05-26T03:26:38.132Z,19.60
2018-05-26T03:29:05.637Z,19.60
2018-05-26T03:31:33.782Z,19.60
2018-05-26T03:34:01.505Z,19.60
2018-05-26T03:36:29.129Z,19.60
2018-05-26T03:38:56.791Z,19.60
2018-05-26T03:41:24.440Z,19.60
2018-05-26T03:43:52.365Z,19.60
2018-05-26T03:46:19.976Z,19.50
2018-05-26T03:48:47.692Z,19.50
2018-05-26T03:51:15.409Z,19.60
2018-05-26T03:53:43.428Z,19.60
2018-05-26T03:56:36.732Z,19.60
2018-05-26T03:59:36.083Z,19.50
2018-05-26T04:02:03.765Z,19.50
2018-05-26T04:04:31.411Z,19.60
2018-05-26T04:06:59.069Z,19.50
2018-05-26T04:09:26.698Z,19.50
2018-05-26T04:11:54.320Z,19.50
2018-05-26T04:14:21.850Z,19.50
2018-05-26T04:16:49.537Z,19.60
2018-05-26T04:19:17.117Z,19.50
2018-05-26T04:21:44.778Z,19.60
2018-05-26T04:24:12.504Z,19.50
2018-05-26T04:26:40.190Z,19.60
2018-05-26T04:29:07.806Z,19.50
2018-05-26T04:31:35.465Z,19.50
2018-05-26T04:34:03.089Z,19.60
2018-05-26T04:36:30.792Z,19.50
2018-05-26T04:38:58.409Z,19.50
2018-05-26T04:41:26.144Z,19.50
2018-05-26T04:43:53.655Z,19.50
2018-05-26T04:46:21.612Z,19.50
2018-05-26T04:48:49.325Z,19.60
2018-05-26T04:51:16.998Z,19.50
2018-05-26T04:53:44.568Z,19.60
2018-05-26T04:56:12.101Z,19.60
2018-05-26T04:58:39.780Z,19.50
2018-05-26T05:01:07.419Z,19.60
2018-05-26T05:03:35.019Z,19.60
2018-05-26T05:06:02.688Z,19.50
2018-05-26T05:08:30.332Z,19.50
2018-05-26T05:10:58.864Z,19.50
2018-05-26T05:13:26.472Z,19.60
2018-05-26T05:15:54.160Z,19.60
2018-05-26T05:18:22.253Z,19.60
2018-05-26T05:20:50.000Z,19.60
2018-05-26T05:23:18.399Z,19.60
2018-05-26T05:25:51.005Z,19.60
2018-05-26T05:28:18.584Z,19.60
2018-05-26T05:30:46.252Z,19.60
2018-05-26T05:33:13.806Z,19.60
2018-05-26T05:35:41.625Z,19.60
2018-05-26T05:38:09.284Z,19.60
2018-05-26T05:40:36.949Z,19.60
2018-05-26T05:43:04.647Z,19.60
2018-05-26T05:45:32.415Z,19.60
2018-05-26T05:48:00.337Z,19.60
2018-05-26T05:50:27.948Z,19.60
2018-05-26T05:52:55.456Z,19.60
2018-05-26T05:55:23.049Z,19.60
2018-05-26T05:57:50.560Z,19.60
2018-05-26T06:00:18.489Z,19.60
2018-05-26T06:02:45.998Z,19.60
2018-05-26T06:05:13.501Z,19.60
2018-05-26T06:07:41.421Z,19.60
2018-05-26T06:10:09.026Z,19.60
2018-05-26T06:12:36.706Z,19.60
2018-05-26T06:15:04.356Z,19.60
2018-05-26T06:17:31.869Z,19.60
2018-05-26T06:19:59.532Z,19.60
2018-05-26T06:22:27.377Z,19.60
2018-05-26T06:24:54.995Z,19.60
2018-05-26T06:27:22.641Z,19.60
2018-05-26T06:29:50.308Z,19.70
2018-05-26T06:32:18.030Z,19.70
2018-05-26T06:34:45.544Z,19.60
2018-05-26T06:37:13.609Z,19.70
2018-05-26T06:39:41.252Z,19.70
2018-05-26T06:42:08.761Z,19.70
2018-05-26T06:44:36.314Z,19.70
2018-05-26T06:47:03.998Z,19.70
2018-05-26T06:49:31.505Z,19.70
2018-05-26T06:51:59.110Z,19.70
2018-05-26T06:54:26.773Z,19.70
2018-05-26T06:56:56.901Z,19.70
2018-05-26T06:59:24.564Z,19.70
2018-05-26T07:01:52.178Z,19.70
2018-05-26T07:04:19.813Z,19.70
2018-05-26T07:06:47.561Z,19.70
2018-05-26T07:09:15.158Z,19.70
2018-05-26T07:11:42.873Z,19.70
2018-05-26T07:14:10.588Z,19.80
2018-05-26T07:16:38.989Z,19.80
2018-05-26T07:19:06.634Z,19.80
2018-05-26T07:21:34.336Z,19.80
2018-05-26T07:24:01.960Z,19.80
2018-05-26T07:26:29.626Z,19.80
2018-05-26T07:28:57.138Z,19.80
2018-05-26T07:31:24.699Z,19.80
2018-05-26T07:33:52.460Z,19.80
2018-05-26T07:36:19.968Z,19.80
2018-05-26T07:38:47.676Z,19.80
2018-05-26T07:41:15.209Z,19.80
2018-05-26T07:43:42.875Z,19.80
2018-05-26T07:46:10.466Z,19.80
2018-05-26T07:48:38.198Z,19.80
2018-05-26T07:51:05.839Z,19.80
2018-05-26T07:53:33.445Z,19.80
2018-05-26T07:56:00.978Z,19.80
2018-05-26T07:58:28.549Z,19.80
2018-05-26T08:00:56.383Z,19.80
2018-05-26T08:03:23.889Z,19.90
2018-05-26T08:05:51.602Z,19.90
2018-05-26T08:08:19.289Z,19.90
2018-05-26T08:10:46.914Z,19.90
2018-05-26T08:13:14.593Z,19.90
2018-05-26T08:15:42.147Z,19.90
2018-05-26T08:18:09.902Z,19.90
2018-05-26T08:20:37.601Z,19.90
2018-05-26T08:23:05.226Z,19.90
2018-05-26T08:25:32.880Z,19.90
2018-05-26T08:28:00.501Z,19.90
2018-05-26T08:30:28.076Z,19.90
2018-05-26T08:32:56.075Z,19.90
2018-05-26T08:35:23.728Z,19.90
2018-05-26T08:37:51.362Z,19.90
2018-05-26T08:40:19.073Z,19.90
2018-05-26T08:42:46.665Z,19.90
2018-05-26T08:45:14.175Z,19.90
2018-05-26T08:47:41.809Z,19.90
2018-05-26T08:50:09.447Z,19.90
2018-05-26T08:52:37.028Z,19.90
2018-05-26T08:55:05.041Z,19.90
2018-05-26T08:57:32.638Z,19.90
2018-05-26T09:00:00.296Z,19.90
2018-05-26T09:02:27.963Z,19.90
2018-05-26T09:04:55.465Z,19.90
2018-05-26T09:07:23.038Z,19.90
2018-05-26T09:09:50.568Z,19.90
2018-05-26T09:12:18.203Z,19.90
2018-05-26T09:14:46.200Z,19.90
2018-05-26T09:17:13.760Z,19.90
2018-05-26T09:19:41.272Z,19.90
2018-05-26T09:22:08.773Z,19.90
2018-05-26T09:24:36.328Z,20.00
2018-05-26T09:27:03.993Z,19.90
2018-05-26T09:29:31.611Z,19.90
2018-05-26T09:31:59.285Z,20.00
2018-05-26T09:34:26.993Z,20.00
2018-05-26T09:36:54.588Z,20.00
2018-05-26T09:39:22.340Z,20.00
2018-05-26T09:41:50.069Z,20.00
2018-05-26T09:44:17.631Z,20.00
2018-05-26T09:46:45.493Z,20.00
2018-05-26T09:49:13.124Z,20.00
2018-05-26T09:51:40.632Z,20.00
2018-05-26T09:54:08.481Z,20.00
2018-05-26T09:56:36.086Z,20.00
2018-05-26T09:59:03.904Z,20.00
2018-05-26T10:01:31.609Z,20.00
2018-05-26T10:03:59.149Z,20.00
2018-05-26T10:06:26.729Z,20.00
2018-05-26T10:08:54.404Z,20.00
2018-05-26T10:11:22.122Z,20.00
2018-05-26T10:13:49.741Z,20.00
2018-05-26T10:16:17.447Z,20.00
2018-05-26T10:18:44.959Z,20.00
2018-05-26T10:21:12.889Z,20.00
2018-05-26T10:23:40.427Z,20.00
2018-05-26T10:26:08.097Z,20.00
2018-05-26T10:28:35.804Z,20.00
2018-05-26T10:31:03.978Z,20.00
2018-05-26T10:33:32.017Z,20.00
2018-05-26T10:35:59.604Z,20.00
2018-05-26T10:38:27.624Z,20.00
2018-05-26T10:40:55.236Z,20.00
2018-05-26T10:43:22.872Z,20.00
2018-05-26T10:46:02.100Z,20.00
2018-05-26T10:48:29.714Z,20.00
2018-05-26T10:50:57.216Z,20.00
2018-05-26T10:53:24.829Z,20.00
2018-05-26T10:55:52.449Z,20.00
2018-05-26T10:58:20.236Z,20.10
2018-05-26T11:00:48.225Z,20.10
2018-05-26T11:03:15.910Z,20.10
2018-05-26T11:05:43.553Z,20.10
2018-05-26T11:08:11.227Z,20.10
2018-05-26T11:10:38.867Z,20.10
2018-05-26T11:13:06.756Z,20.10
2018-05-26T11:15:34.394Z,20.10
2018-05-26T11:18:02.144Z,20.10
2018-05-26T11:20:29.473Z,20.10
2018-05-26T11:22:57.187Z,20.10
2018-05-26T11:25:24.845Z,20.10
2018-05-26T11:27:52.437Z,20.10
2018-05-26T11:30:19.946Z,20.10
2018-05-26T11:32:47.604Z,20.10
2018-05-26T11:35:15.277Z,20.10
2018-05-26T11:37:42.941Z,20.10
2018-05-26T11:40:10.537Z,20.10
2018-05-26T11:42:38.269Z,20.10
2018-05-26T11:45:05.880Z,20.10
2018-05-26T11:47:33.524Z,20.10
2018-05-26T11:50:01.037Z,20.10
2018-05-26T11:52:33.149Z,20.10
2018-05-26T11:55:00.659Z,20.10
2018-05-26T11:57:28.276Z,20.20
2018-05-26T11:59:55.864Z,20.10
2018-05-26T12:02:23.608Z,20.20
2018-05-26T12:04:51.353Z,20.20
2018-05-26T12:07:18.929Z,20.20
2018-05-26T12:09:46.548Z,20.10
2018-05-26T12:12:14.257Z,20.20
2018-05-26T12:14:41.894Z,20.20
2018-05-26T12:17:09.501Z,20.20
